Time;durP1;ratioP1;P1;durP2;ratioP2;P2;SDS_P1;SDS_P2;PMS_P1;PMS_P2;Temp;Humidity;BMP_temperature;BMP_pressure;BME280_temperature;BME280_humidity;BME280_pressure;Samples;Min_cycle;Max_cycle;Signal;HPM_P1;HPM_P2
2022/04/02 00:01:29;;;;;;;20.90;12.47;;;0.50;99.90;;;;;;5056161;28;20181;-82
2022/04/02 00:03:55;;;;;;;24.97;14.77;;;0.50;99.90;;;;;;5054775;28;20180;-82
2022/04/02 00:06:21;;;;;;;31.77;14.90;;;0.50;99.90;;;;;;5055911;28;20180;-82
2022/04/02 00:08:46;;;;;;;29.77;15.07;;;0.50;99.90;;;;;;5038092;28;20196;-82
2022/04/02 00:11:12;;;;;;;20.43;13.23;;;0.50;99.90;;;;;;5054865;28;20234;-82
2022/04/02 00:13:38;;;;;;;19.73;13.23;;;0.50;99.90;;;;;;5055225;28;20241;-81
2022/04/02 00:16:05;;;;;;;19.37;12.97;;;0.50;99.90;;;;;;5056190;28;20184;-82
2022/04/02 00:18:31;;;;;;;20.73;13.30;;;0.50;99.90;;;;;;5054893;28;20668;-81
2022/04/02 00:20:58;;;;;;;21.20;13.47;;;2.00;99.90;;;;;;5055188;28;20179;-82
2022/04/02 00:23:35;;;;;;;31.80;15.40;;;1.50;99.90;;;;;;5057342;28;20668;-81
2022/04/02 00:26:02;;;;;;;36.43;17.33;;;0.50;99.90;;;;;;5054378;28;20191;-82
2022/04/02 00:28:29;;;;;;;32.63;16.10;;;0.50;99.90;;;;;;5054625;28;20191;-82
2022/04/02 00:30:55;;;;;;;21.20;12.80;;;1.80;99.90;;;;;;5037159;28;20206;-82
2022/04/02 00:33:21;;;;;;;28.43;14.27;;;0.50;99.90;;;;;;5054442;28;20179;-82
2022/04/02 00:35:46;;;;;;;24.30;15.13;;;0.50;99.90;;;;;;5037567;28;20547;-87
2022/04/02 00:38:12;;;;;;;23.63;13.07;;;0.50;99.90;;;;;;5054676;28;20730;-82
2022/04/02 00:40:42;;;;;;;20.20;13.17;;;0.50;99.90;;;;;;5055942;28;20588;-81
2022/04/02 00:43:20;;;;;;;20.43;12.70;;;0.50;99.90;;;;;;5038154;28;20191;-79
2022/04/02 00:45:46;;;;;;;19.40;13.27;;;;;;;;;;5055515;28;20171;-81
2022/04/02 00:48:11;;;;;;;18.40;11.17;;;0.50;99.90;;;;;;5055386;28;20179;-81
2022/04/02 00:50:38;;;;;;;17.57;11.03;;;0.90;99.90;;;;;;5065677;28;20647;-81
2022/04/02 00:53:04;;;;;;;17.03;11.70;;;0.50;99.90;;;;;;5074933;28;20278;-82
2022/04/02 00:55:31;;;;;;;20.40;11.87;;;1.10;99.90;;;;;;5075237;28;20208;-82
2022/04/02 00:57:58;;;;;;;23.43;13.20;;;3.00;99.90;;;;;;5073416;28;20235;-82
2022/04/02 01:00:23;;;;;;;18.40;11.93;;;2.20;99.90;;;;;;5073961;28;20375;-81
2022/04/02 01:02:49;;;;;;;21.77;12.40;;;;;;;;;;5074777;28;20747;-81
2022/04/02 01:05:15;;;;;;;19.57;11.97;;;0.50;99.90;;;;;;5073458;28;20673;-81
2022/04/02 01:07:41;;;;;;;19.17;13.07;;;0.50;99.90;;;;;;5073993;28;20268;-81
2022/04/02 01:10:07;;;;;;;18.63;11.83;;;1.30;99.90;;;;;;5074601;28;20272;-81
2022/04/02 01:12:32;;;;;;;19.87;12.27;;;0.50;99.90;;;;;;5074013;28;20179;-80
2022/04/02 01:14:58;;;;;;;19.33;12.27;;;0.50;99.90;;;;;;5074706;28;20179;-81
2022/04/02 01:17:24;;;;;;;20.00;13.03;;;0.50;99.90;;;;;;5073628;28;20182;-81
2022/04/02 01:19:50;;;;;;;18.13;11.97;;;0.50;99.90;;;;;;5074123;28;20247;-81
2022/04/02 01:22:16;;;;;;;16.93;12.10;;;1.80;99.90;;;;;;5074862;28;20226;-81
2022/04/02 01:24:41;;;;;;;18.13;12.20;;;1.70;99.90;;;;;;5074046;28;20232;-81
2022/04/02 01:27:07;;;;;;;17.07;9.40;;;1.00;99.90;;;;;;5073911;28;20175;-82
2022/04/02 01:29:34;;;;;;;15.30;10.90;;;0.80;99.90;;;;;;5074936;28;20249;-82
2022/04/02 01:31:59;;;;;;;17.83;10.93;;;1.00;99.90;;;;;;5074014;28;20179;-82
2022/04/02 01:34:28;;;;;;;19.07;11.07;;;1.60;99.90;;;;;;5075096;28;20189;-81
2022/04/02 01:36:54;;;;;;;16.57;10.70;;;1.90;99.90;;;;;;5057179;28;20628;-81
2022/04/02 01:39:20;;;;;;;18.83;10.60;;;1.70;99.90;;;;;;5056742;28;20574;-81
2022/04/02 01:41:46;;;;;;;17.73;11.10;;;0.70;99.90;;;;;;5072866;28;20179;-81
2022/04/02 01:44:11;;;;;;;15.53;10.60;;;1.70;99.90;;;;;;5072557;28;20249;-81
2022/04/02 01:46:37;;;;;;;16.30;9.93;;;1.30;99.90;;;;;;5074618;28;20254;-81
2022/04/02 01:49:03;;;;;;;13.30;9.10;;;1.30;99.90;;;;;;5072878;28;20191;-82
2022/04/02 01:51:29;;;;;;;18.93;9.93;;;0.40;99.90;;;;;;5074389;28;20187;-81
2022/04/02 01:53:55;;;;;;;17.17;9.53;;;0.50;99.90;;;;;;5056604;28;20678;-81
2022/04/02 01:56:20;;;;;;;18.43;11.43;;;2.00;99.90;;;;;;5056203;28;20278;-81
2022/04/02 01:58:48;;;;;;;15.90;8.97;;;;;;;;;;5072985;28;20292;-81
2022/04/02 02:01:13;;;;;;;15.40;9.90;;;0.50;99.90;;;;;;5072766;28;20517;-81
2022/04/02 02:03:39;;;;;;;14.63;9.13;;;0.50;99.90;;;;;;5073326;28;20206;-81
2022/04/02 02:06:06;;;;;;;11.57;8.03;;;0.50;99.90;;;;;;5056705;28;20511;-81
2022/04/02 02:08:32;;;;;;;12.07;8.47;;;0.80;99.90;;;;;;5073244;28;20253;-81
2022/04/02 02:10:58;;;;;;;13.03;8.47;;;0.60;99.90;;;;;;5073115;28;20179;-81
2022/04/02 02:13:24;;;;;;;14.33;9.53;;;0.50;99.90;;;;;;5072832;28;20306;-81
2022/04/02 02:15:49;;;;;;;13.63;8.37;;;0.40;99.90;;;;;;5073498;28;20205;-80
2022/04/02 02:18:15;;;;;;;12.50;8.47;;;0.50;99.90;;;;;;5038926;28;20215;-81
2022/04/02 02:20:42;;;;;;;11.30;7.57;;;0.50;99.90;;;;;;5055687;28;20179;-81
2022/04/02 02:23:08;;;;;;;11.77;8.00;;;1.30;99.90;;;;;;5073907;28;20300;-80
2022/04/02 02:25:34;;;;;;;10.57;7.60;;;0.50;99.90;;;;;;5074022;28;20204;-80
2022/04/02 02:28:00;;;;;;;9.80;6.77;;;0.50;99.90;;;;;;5072430;28;20240;-81
2022/04/02 02:30:26;;;;;;;11.30;7.57;;;0.50;99.90;;;;;;5072031;28;20608;-81
2022/04/02 02:35:49;;;;;;;11.17;7.83;;;0.60;99.90;;;;;;5039177;28;20189;-81
2022/04/02 02:35:49;;;;;;;14.40;8.03;;;1.90;99.90;;;;;;5073761;28;20245;-81
2022/04/02 02:38:15;;;;;;;12.07;9.43;;;2.80;99.90;;;;;;5072198;28;20214;-81
2022/04/02 02:40:41;;;;;;;10.70;7.30;;;0.80;99.90;;;;;;5072992;28;20587;-81
2022/04/02 02:43:08;;;;;;;13.43;8.60;;;0.60;99.90;;;;;;5072309;28;20212;-82
2022/04/02 02:45:34;;;;;;;13.67;8.70;;;0.50;99.90;;;;;;5074963;28;20183;-81
2022/04/02 02:48:01;;;;;;;12.00;8.40;;;0.40;99.90;;;;;;5073974;28;20192;-81
2022/04/02 02:50:27;;;;;;;13.00;8.20;;;0.80;99.90;;;;;;5075704;28;20183;-81
2022/04/02 02:52:53;;;;;;;13.10;8.57;;;;;;;;;;5079001;28;20175;-81
2022/04/02 02:55:19;;;;;;;11.17;7.70;;;0.40;99.90;;;;;;5077898;28;20175;-81
2022/04/02 02:57:46;;;;;;;9.73;7.40;;;1.70;99.90;;;;;;5070456;28;20234;-81
2022/04/02 03:00:13;;;;;;;10.20;7.17;;;0.40;99.90;;;;;;5055520;28;20180;-80
2022/04/02 03:02:40;;;;;;;8.47;6.30;;;0.40;99.90;;;;;;5039577;28;20581;-81
2022/04/02 03:05:11;;;;;;;8.33;6.40;;;0.40;99.90;;;;;;5054879;28;20280;-80
2022/04/02 03:07:48;;;;;;;10.90;8.10;;;0.40;99.90;;;;;;5053767;28;20210;-80
2022/04/02 03:10:25;;;;;;;9.37;6.47;;;0.40;99.90;;;;;;5054307;28;20167;-83
2022/04/02 03:12:52;;;;;;;9.30;6.93;;;0.40;99.90;;;;;;5036401;28;20182;-82
2022/04/02 03:15:18;;;;;;;12.43;6.93;;;0.40;99.90;;;;;;5035899;28;20655;-81
2022/04/02 03:17:45;;;;;;;10.27;7.23;;;;;;;;;;5035570;28;20194;-80
2022/04/02 03:20:15;;;;;;;10.47;6.47;;;0.40;99.90;;;;;;5053635;28;20188;-84
2022/04/02 03:22:43;;;;;;;9.60;6.93;;;0.70;99.90;;;;;;5037472;28;20640;-81
2022/04/02 03:25:11;;;;;;;8.97;6.60;;;0.40;99.90;;;;;;5036658;28;20176;-81
2022/04/02 03:27:38;;;;;;;9.03;7.07;;;0.40;99.90;;;;;;5054472;28;20267;-81
2022/04/02 03:30:06;;;;;;;9.53;7.40;;;0.40;99.90;;;;;;5035580;28;20187;-80
2022/04/02 03:32:32;;;;;;;8.97;7.10;;;0.40;99.90;;;;;;5035171;28;20627;-81
2022/04/02 03:34:58;;;;;;;9.27;6.60;;;0.70;99.90;;;;;;5035866;28;20322;-82
2022/04/02 03:37:25;;;;;;;10.63;6.97;;;2.10;99.90;;;;;;5034883;28;20215;-82
2022/04/02 03:39:51;;;;;;;9.77;7.73;;;0.40;99.90;;;;;;5035108;28;20273;-82
2022/04/02 03:42:17;;;;;;;10.73;7.90;;;0.40;99.90;;;;;;5018583;28;20290;-83
2022/04/02 03:44:43;;;;;;;9.23;6.93;;;0.40;99.90;;;;;;5034689;28;20258;-83
2022/04/02 03:47:08;;;;;;;10.50;8.07;;;1.40;99.90;;;;;;5034976;28;20180;-83
2022/04/02 03:49:38;;;;;;;9.87;7.13;;;0.40;99.90;;;;;;5035053;28;20195;-82
2022/04/02 03:52:04;;;;;;;10.27;7.37;;;0.40;99.90;;;;;;5052512;28;20190;-82
2022/04/02 03:54:30;;;;;;;10.40;7.17;;;0.40;99.90;;;;;;5052134;28;20631;-82
2022/04/02 03:56:56;;;;;;;10.93;7.53;;;1.50;99.90;;;;;;5052591;28;20183;-82
2022/04/02 03:59:21;;;;;;;11.53;7.63;;;0.40;99.90;;;;;;5068143;28;20246;-82
2022/04/02 04:01:47;;;;;;;11.63;8.33;;;0.40;99.90;;;;;;5072658;28;20631;-83
2022/04/02 04:04:13;;;;;;;12.70;8.07;;;0.40;99.90;;;;;;5071041;28;20224;-82
2022/04/02 04:06:39;;;;;;;12.07;7.60;;;0.20;99.90;;;;;;5073281;28;20179;-82
2022/04/02 04:09:05;;;;;;;12.43;7.70;;;1.00;99.90;;;;;;5041436;28;20670;-82
2022/04/02 04:11:31;;;;;;;9.53;7.37;;;0.40;99.90;;;;;;5074445;28;20182;-82
2022/04/02 04:13:56;;;;;;;16.83;9.10;;;0.50;99.90;;;;;;5075714;28;20180;-82
2022/04/02 04:16:23;;;;;;;9.97;7.23;;;1.50;99.90;;;;;;5074696;28;20175;-83
2022/04/02 04:18:49;;;;;;;12.40;8.13;;;2.10;99.90;;;;;;5074483;28;20218;-83
2022/04/02 04:21:15;;;;;;;9.60;6.97;;;0.40;99.90;;;;;;5057809;28;20187;-83
2022/04/02 04:23:42;;;;;;;11.37;7.33;;;0.40;99.90;;;;;;5074254;28;20175;-82
2022/04/02 04:26:08;;;;;;;9.63;7.83;;;1.60;99.90;;;;;;5074534;28;20209;-82
2022/04/02 04:28:35;;;;;;;12.60;7.97;;;;;;;;;;5073930;28;20187;-80
2022/04/02 04:31:01;;;;;;;11.20;8.63;;;0.40;99.90;;;;;;5074507;28;20193;-82
2022/04/02 04:33:27;;;;;;;10.27;7.03;;;;;;;;;;5075365;28;20179;-82
2022/04/02 04:35:52;;;;;;;10.30;8.27;;;0.40;99.90;;;;;;5075867;28;20240;-81
2022/04/02 04:38:18;;;;;;;10.33;7.97;;;2.20;99.90;;;;;;5057639;28;20221;-82
2022/04/02 04:40:44;;;;;;;11.13;7.73;;;0.40;99.90;;;;;;5075328;28;20182;-82
2022/04/02 04:43:10;;;;;;;10.67;7.70;;;2.00;99.90;;;;;;5072230;28;20189;-82
2022/04/02 04:45:36;;;;;;;11.97;8.23;;;1.50;99.90;;;;;;5070656;28;20238;-83
2022/04/02 04:48:01;;;;;;;10.37;8.03;;;1.80;99.90;;;;;;5071553;28;20179;-81
2022/04/02 04:50:27;;;;;;;12.03;8.20;;;0.40;99.90;;;;;;5075346;28;20639;-82
2022/04/02 04:52:53;;;;;;;14.90;8.47;;;0.70;99.90;;;;;;5076155;28;20182;-81
2022/04/02 04:55:19;;;;;;;12.13;7.53;;;0.50;99.90;;;;;;5064902;28;20187;-81
2022/04/02 04:57:47;;;;;;;12.53;8.83;;;0.40;99.90;;;;;;5049537;28;20691;-81
2022/04/02 05:00:15;;;;;;;12.57;9.03;;;0.40;99.90;;;;;;5027949;28;20231;-80
2022/04/02 05:02:42;;;;;;;12.23;8.23;;;0.40;99.90;;;;;;5028326;28;20191;-79
2022/04/02 05:05:08;;;;;;;13.37;9.77;;;2.00;99.90;;;;;;5054504;28;20274;-80
2022/04/02 05:07:34;;;;;;;12.43;9.10;;;0.40;99.90;;;;;;5036739;28;20287;-80
2022/04/02 05:10:01;;;;;;;14.10;9.87;;;0.40;99.90;;;;;;5051723;28;20543;-80
2022/04/02 05:12:27;;;;;;;52.83;25.57;;;0.70;99.90;;;;;;5045567;28;20181;-81
2022/04/02 05:14:53;;;;;;;25.53;15.73;;;0.40;99.90;;;;;;5021738;28;20184;-81
2022/04/02 05:17:19;;;;;;;27.23;15.13;;;0.40;99.90;;;;;;5023321;28;20638;-81
2022/04/02 05:19:45;;;;;;;15.03;9.93;;;0.40;99.90;;;;;;5014073;28;20199;-80
2022/04/02 05:22:11;;;;;;;20.80;13.37;;;0.50;99.90;;;;;;5043418;28;20734;-80
2022/04/02 05:24:37;;;;;;;14.27;10.00;;;0.50;99.90;;;;;;5045036;28;20181;-80
2022/04/02 05:27:03;;;;;;;16.53;11.77;;;0.50;99.90;;;;;;5024843;28;21863;-81
2022/04/02 05:29:30;;;;;;;18.47;12.67;;;0.40;99.90;;;;;;5026658;28;20245;-82
2022/04/02 05:31:55;;;;;;;23.47;15.07;;;0.40;99.90;;;;;;5020333;28;20250;-82
2022/04/02 05:34:21;;;;;;;18.43;12.33;;;0.40;99.90;;;;;;5023131;28;20192;-82
2022/04/02 05:36:47;;;;;;;20.47;13.17;;;0.40;99.90;;;;;;5026429;28;21123;-82
2022/04/02 05:39:12;;;;;;;19.03;12.03;;;0.40;99.90;;;;;;5029069;28;20599;-81
2022/04/02 05:41:38;;;;;;;31.43;17.83;;;0.40;99.90;;;;;;5043936;28;20229;-81
2022/04/02 05:44:07;;;;;;;34.40;16.33;;;0.50;99.90;;;;;;5005825;28;20555;-84
2022/04/02 05:46:34;;;;;;;27.53;15.53;;;0.40;99.90;;;;;;5022657;28;20305;-82
2022/04/02 05:48:59;;;;;;;23.83;14.27;;;0.50;99.90;;;;;;5008449;28;20241;-82
2022/04/02 05:51:25;;;;;;;20.50;13.03;;;0.50;99.90;;;;;;5043624;28;20172;-83
2022/04/02 05:53:52;;;;;;;14.77;10.30;;;;;;;;;;5011701;28;20185;-82
2022/04/02 05:56:19;;;;;;;18.93;11.77;;;0.50;99.90;;;;;;5032013;28;20180;-85
2022/04/02 05:58:45;;;;;;;20.07;10.70;;;;;;;;;;5049061;28;20254;-84
2022/04/02 06:01:11;;;;;;;16.40;10.07;;;0.50;99.90;;;;;;5058698;28;20194;-83
2022/04/02 06:03:39;;;;;;;14.63;10.00;;;0.50;99.90;;;;;;5062203;28;20286;-84
2022/04/02 06:06:07;;;;;;;15.57;10.37;;;0.50;99.90;;;;;;5075183;28;20192;-84
2022/04/02 06:08:33;;;;;;;18.73;12.07;;;0.50;99.90;;;;;;5077364;28;20179;-85
2022/04/02 06:10:59;;;;;;;17.50;11.13;;;0.50;99.90;;;;;;5062691;28;20187;-83
2022/04/02 06:13:25;;;;;;;17.97;12.23;;;2.70;99.90;;;;;;5061542;28;20693;-83
2022/04/02 06:15:51;;;;;;;15.97;11.20;;;0.50;99.90;;;;;;5050446;28;20176;-85
2022/04/02 06:18:19;;;;;;;19.17;13.43;;;0.50;99.90;;;;;;5051081;28;20288;-84
2022/04/02 06:20:46;;;;;;;17.23;11.07;;;0.50;99.90;;;;;;5049201;28;20971;-82
2022/04/02 06:23:13;;;;;;;19.30;12.60;;;0.60;99.90;;;;;;5041231;28;20180;-83
2022/04/02 06:25:39;;;;;;;18.00;12.30;;;0.60;99.90;;;;;;5051241;28;20189;-83
2022/04/02 06:28:05;;;;;;;16.67;12.10;;;0.60;99.90;;;;;;5055253;28;20202;-85
2022/04/02 06:30:31;;;;;;;17.07;12.30;;;0.60;99.90;;;;;;5065960;28;20608;-86
2022/04/02 06:32:57;;;;;;;18.10;12.23;;;0.60;99.90;;;;;;5052727;28;20271;-82
2022/04/02 06:35:24;;;;;;;18.20;11.03;;;0.70;99.90;;;;;;5063457;28;20632;-84
2022/04/02 06:37:50;;;;;;;20.20;12.30;;;0.60;99.90;;;;;;5052937;28;20266;-82
2022/04/02 06:40:17;;;;;;;18.77;13.60;;;0.70;99.90;;;;;;5060578;28;20191;-85
2022/04/02 06:42:43;;;;;;;19.50;12.37;;;0.60;99.90;;;;;;5034736;28;20618;-84
2022/04/02 06:45:09;;;;;;;23.67;15.53;;;0.60;99.90;;;;;;5070450;28;20277;-82
2022/04/02 06:47:35;;;;;;;20.83;14.80;;;0.70;99.90;;;;;;5067381;28;20180;-83
2022/04/02 06:50:06;;;;;;;15.63;10.67;;;0.70;99.90;;;;;;5051083;28;20234;-83
2022/04/02 06:52:32;;;;;;;18.60;12.23;;;0.70;99.90;;;;;;5054853;28;20207;-84
2022/04/02 06:54:58;;;;;;;19.80;12.73;;;0.70;99.90;;;;;;5033309;28;20184;-84
2022/04/02 06:57:24;;;;;;;18.27;12.70;;;0.80;99.90;;;;;;5056176;28;20241;-84
2022/04/02 06:59:50;;;;;;;18.97;12.47;;;0.80;99.90;;;;;;5050062;28;20569;-83
2022/04/02 07:02:16;;;;;;;18.80;13.00;;;0.80;99.90;;;;;;5057511;28;20677;-84
2022/04/02 07:04:42;;;;;;;19.33;13.07;;;0.90;99.90;;;;;;5058052;28;20180;-84
2022/04/02 07:07:08;;;;;;;17.67;13.00;;;0.90;99.90;;;;;;5062098;28;20191;-83
2022/04/02 07:09:35;;;;;;;17.73;11.57;;;0.90;99.90;;;;;;5062385;28;20188;-83
2022/04/02 07:12:01;;;;;;;17.27;12.47;;;1.00;99.90;;;;;;5061842;28;20191;-87
2022/04/02 07:14:28;;;;;;;16.83;10.97;;;1.00;99.90;;;;;;5052812;28;20333;-85
2022/04/02 07:16:53;;;;;;;12.97;9.83;;;1.00;99.90;;;;;;5062418;28;20308;-85
2022/04/02 07:19:23;;;;;;;18.17;9.40;;;0.90;99.90;;;;;;5047965;28;20302;-83
2022/04/02 07:21:53;;;;;;;15.73;11.17;;;1.00;99.90;;;;;;5026695;28;20191;-82
2022/04/02 07:24:20;;;;;;;16.30;11.43;;;1.00;99.90;;;;;;5063154;28;20183;-84
2022/04/02 07:26:47;;;;;;;15.00;10.57;;;1.00;99.90;;;;;;5064668;28;20237;-88
2022/04/02 07:29:15;;;;;;;17.87;10.83;;;1.00;99.90;;;;;;5064352;28;20266;-81
2022/04/02 07:31:41;;;;;;;14.33;9.30;;;1.00;99.90;;;;;;5062031;28;20183;-83
2022/04/02 07:34:07;;;;;;;13.13;8.97;;;0.90;99.90;;;;;;5055351;28;20183;-86
2022/04/02 07:37:31;;;;;;;12.37;9.27;;;0.90;99.90;;;;;;5056446;28;20242;-83
2022/04/02 07:40:03;;;;;;;17.10;12.37;;;0.90;99.90;;;;;;4978388;28;20213;-82
2022/04/02 07:42:34;;;;;;;19.67;13.90;;;1.00;99.90;;;;;;4967579;28;20268;-83
2022/04/02 07:45:09;;;;;;;22.47;15.53;;;1.00;99.90;;;;;;5018550;28;20186;-82
2022/04/02 07:47:37;;;;;;;16.63;12.97;;;1.00;99.90;;;;;;5053828;28;20310;-86
2022/04/02 07:50:05;;;;;;;13.47;9.80;;;1.00;99.90;;;;;;5053991;28;20205;-82
2022/04/02 07:52:32;;;;;;;17.13;12.87;;;1.00;99.90;;;;;;5062066;28;20739;-83
2022/04/02 07:55:01;;;;;;;16.13;10.63;;;1.00;99.90;;;;;;5061573;28;20687;-87
2022/04/02 07:57:48;;;;;;;12.67;9.83;;;1.00;99.90;;;;;;5059789;28;20284;-87
2022/04/02 08:00:18;;;;;;;12.97;10.20;;;1.00;99.90;;;;;;5025089;28;20656;-83
2022/04/02 08:02:46;;;;;;;15.03;11.50;;;1.10;99.90;;;;;;5040289;28;20241;-85
2022/04/02 08:05:17;;;;;;;15.73;10.03;;;1.00;99.90;;;;;;5042021;28;20176;-89
2022/04/02 08:07:49;;;;;;;13.20;9.70;;;1.00;99.90;;;;;;5037980;28;20274;-85
2022/04/02 08:10:19;;;;;;;14.50;10.10;;;1.10;99.90;;;;;;5023241;28;20185;-82
2022/04/02 08:12:45;;;;;;;13.60;8.97;;;1.20;99.90;;;;;;5047917;28;20181;-83
2022/04/02 08:15:16;;;;;;;15.27;11.30;;;1.20;99.90;;;;;;5019144;28;20189;-83
2022/04/02 08:17:44;;;;;;;13.37;9.80;;;1.10;99.90;;;;;;5015223;28;20180;-83
2022/04/02 08:20:10;;;;;;;18.60;12.67;;;1.10;99.90;;;;;;5029475;28;20600;-85
2022/04/02 08:22:36;;;;;;;11.90;9.57;;;1.20;99.90;;;;;;5015472;28;20196;-85
2022/04/02 08:25:03;;;;;;;16.33;13.13;;;1.10;99.90;;;;;;5023036;28;20749;-83
2022/04/02 08:27:32;;;;;;;12.70;10.13;;;1.10;99.90;;;;;;5045024;28;20246;-87
2022/04/02 08:30:05;;;;;;;12.23;9.63;;;1.10;99.90;;;;;;5022107;28;20286;-86
2022/04/02 08:32:48;;;;;;;14.77;10.97;;;1.00;99.90;;;;;;5024790;28;20183;-84
2022/04/02 08:35:22;;;;;;;14.40;10.83;;;1.10;99.90;;;;;;5040457;28;20176;-86
2022/04/02 08:37:56;;;;;;;13.77;9.87;;;1.20;99.90;;;;;;5041236;28;20236;-83
2022/04/02 08:40:36;;;;;;;19.47;13.80;;;1.20;99.90;;;;;;5037822;28;20191;-85
2022/04/02 08:43:20;;;;;;;17.10;11.60;;;1.30;99.90;;;;;;5024487;28;20177;-82
2022/04/02 08:46:05;;;;;;;16.53;11.07;;;1.60;99.90;;;;;;5027800;28;20565;-84
2022/04/02 08:48:35;;;;;;;13.00;9.90;;;1.30;99.90;;;;;;5033505;28;20270;-85
2022/04/02 08:51:24;;;;;;;17.53;12.40;;;0.30;99.90;;;;;;5037365;28;20175;-83
2022/04/02 08:54:04;;;;;;;14.80;10.27;;;0.70;99.90;;;;;;5022068;28;20195;-85
2022/04/02 08:56:34;;;;;;;13.60;10.87;;;1.50;99.90;;;;;;5024952;28;20212;-87
2022/04/02 08:59:04;;;;;;;17.70;11.50;;;1.50;99.90;;;;;;5043869;28;20222;-85
2022/04/02 09:02:01;;;;;;;18.17;12.57;;;1.40;99.90;;;;;;5049570;28;20181;-86
2022/04/02 09:05:01;;;;;;;23.97;16.27;;;1.40;99.90;;;;;;5013958;28;20205;-85
2022/04/02 09:08:08;;;;;;;28.57;19.23;;;1.40;99.90;;;;;;5058086;28;20274;-84
2022/04/02 09:11:06;;;;;;;24.70;17.27;;;1.70;99.90;;;;;;5017208;28;20195;-83
2022/04/02 09:13:56;;;;;;;24.93;17.00;;;1.40;99.90;;;;;;5060877;28;20271;-84
2022/04/02 09:16:34;;;;;;;20.73;14.27;;;1.40;99.90;;;;;;5065516;28;20183;-84
2022/04/02 09:19:12;;;;;;;18.73;13.00;;;1.50;99.90;;;;;;5059062;28;20198;-84
2022/04/02 09:22:05;;;;;;;21.33;12.97;;;1.40;99.90;;;;;;5068947;28;20175;-83
2022/04/02 09:24:53;;;;;;;19.53;10.63;;;1.40;99.90;;;;;;5066276;28;20196;-83
2022/04/02 09:27:56;;;;;;;20.10;12.70;;;1.50;99.90;;;;;;5069039;28;20201;-85
2022/04/02 09:30:31;;;;;;;26.50;14.03;;;1.60;99.90;;;;;;5047897;28;20180;-88
2022/04/02 09:33:20;;;;;;;13.07;9.27;;;1.60;99.90;;;;;;5054777;28;20182;-83
2022/04/02 09:36:15;;;;;;;20.67;11.83;;;1.50;99.90;;;;;;5018748;28;20202;-84
2022/04/02 09:38:50;;;;;;;18.47;11.63;;;1.60;99.90;;;;;;5046771;28;20211;-83
2022/04/02 09:41:15;;;;;;;21.00;12.10;;;1.50;99.90;;;;;;5045442;28;20192;-84
2022/04/02 09:44:09;;;;;;;15.97;9.53;;;1.60;99.90;;;;;;5046152;28;20193;-82
2022/04/02 09:47:00;;;;;;;19.67;10.87;;;1.50;99.90;;;;;;5054970;28;20179;-83
2022/04/02 09:49:40;;;;;;;12.10;9.53;;;1.60;99.90;;;;;;5057140;28;20183;-82
2022/04/02 09:52:07;;;;;;;17.77;9.37;;;1.40;99.90;;;;;;5062104;28;20300;-81
2022/04/02 09:54:36;;;;;;;11.90;9.83;;;1.40;99.90;;;;;;5069424;28;20184;-84
2022/04/02 09:57:51;;;;;;;14.70;10.83;;;1.30;99.90;;;;;;5067137;28;20186;-83
2022/04/02 10:00:17;;;;;;;16.40;10.93;;;1.30;99.90;;;;;;5029593;28;20204;-82
2022/04/02 10:03:13;;;;;;;14.10;10.97;;;1.90;99.90;;;;;;5054729;28;20867;-83
2022/04/02 10:06:11;;;;;;;17.30;12.23;;;1.20;99.90;;;;;;5053026;28;20184;-81
2022/04/02 10:08:49;;;;;;;25.73;13.27;;;1.30;99.90;;;;;;5050823;28;20190;-82
2022/04/02 10:11:17;;;;;;;18.93;11.87;;;1.30;99.90;;;;;;5065370;28;20179;-83
2022/04/02 10:13:44;;;;;;;21.43;13.57;;;2.30;99.90;;;;;;5062822;28;20203;-85
2022/04/02 10:16:16;;;;;;;19.93;12.23;;;1.40;99.90;;;;;;5054047;28;20259;-81
2022/04/02 10:18:44;;;;;;;17.80;11.63;;;2.00;99.90;;;;;;5039373;28;20228;-83
2022/04/02 10:21:11;;;;;;;14.87;9.87;;;1.30;99.90;;;;;;5051134;28;20202;-83
2022/04/02 10:23:41;;;;;;;12.83;8.57;;;1.10;99.90;;;;;;5047197;28;20184;-83
2022/04/02 10:26:18;;;;;;;9.50;7.97;;;1.20;99.90;;;;;;5059186;28;20713;-81
2022/04/02 10:28:56;;;;;;;11.60;9.77;;;1.20;99.90;;;;;;5057130;28;20187;-81
2022/04/02 10:31:37;;;;;;;12.20;8.63;;;1.10;99.90;;;;;;5053788;28;20191;-85
2022/04/02 10:34:24;;;;;;;13.20;9.40;;;1.40;99.90;;;;;;5041111;28;20179;-84
2022/04/02 10:36:54;;;;;;;15.03;10.73;;;1.30;99.90;;;;;;5057637;28;20210;-82
2022/04/02 10:39:24;;;;;;;15.30;11.50;;;1.20;99.90;;;;;;5051602;28;20200;-81
2022/04/02 10:41:55;;;;;;;14.70;11.47;;;1.40;99.90;;;;;;5056423;28;20632;-83
2022/04/02 10:44:54;;;;;;;11.30;9.23;;;3.80;99.90;;;;;;5058096;28;20191;-83
2022/04/02 10:47:26;;;;;;;10.50;8.87;;;2.20;99.90;;;;;;5054120;28;20228;-83
2022/04/02 10:49:59;;;;;;;12.10;9.60;;;1.50;99.90;;;;;;5058352;28;21137;-81
2022/04/02 10:52:27;;;;;;;12.00;9.67;;;1.10;99.90;;;;;;5059758;28;20268;-86
2022/04/02 10:54:53;;;;;;;13.63;9.37;;;2.00;99.90;;;;;;5063517;28;20535;-81
2022/04/02 10:57:18;;;;;;;14.60;11.87;;;1.20;99.90;;;;;;5062407;28;20235;-81
2022/04/02 10:59:47;;;;;;;14.53;10.60;;;1.20;99.90;;;;;;5024461;28;20216;-84
2022/04/02 11:02:42;;;;;;;12.10;9.87;;;1.80;99.90;;;;;;5025635;28;20642;-81
2022/04/02 11:05:10;;;;;;;13.57;10.87;;;1.10;99.90;;;;;;5035503;28;20283;-83
2022/04/02 11:07:42;;;;;;;13.27;10.20;;;1.30;99.90;;;;;;5024561;28;20208;-83
2022/04/02 11:10:13;;;;;;;13.13;11.10;;;1.20;99.90;;;;;;5033366;28;20659;-84
2022/04/02 11:12:41;;;;;;;13.10;10.27;;;1.30;99.90;;;;;;5024165;28;20181;-84
2022/04/02 11:15:17;;;;;;;10.63;9.53;;;1.30;99.90;;;;;;5031399;28;20177;-83
2022/04/02 11:17:45;;;;;;;11.80;10.30;;;1.30;99.90;;;;;;5026559;28;20801;-83
2022/04/02 11:20:20;;;;;;;12.87;9.13;;;1.10;99.90;;;;;;4999036;28;20701;-81
2022/04/02 11:22:51;;;;;;;12.30;9.20;;;1.10;99.90;;;;;;5033104;28;20660;-81
2022/04/02 11:25:32;;;;;;;11.57;8.67;;;2.70;99.90;;;;;;5033121;28;20188;-81
2022/04/02 11:28:18;;;;;;;11.43;9.07;;;1.10;99.90;;;;;;5034584;28;20198;-83
2022/04/02 11:31:05;;;;;;;12.97;10.17;;;1.20;99.90;;;;;;5036143;28;20176;-83
2022/04/02 11:33:50;;;;;;;12.13;9.23;;;1.20;99.90;;;;;;5048126;28;20172;-82
2022/04/02 11:36:16;;;;;;;14.03;10.37;;;1.70;99.90;;;;;;5038799;28;20180;-82
2022/04/02 11:39:01;;;;;;;16.10;12.37;;;1.40;99.90;;;;;;5032182;28;20216;-81
2022/04/02 11:41:36;;;;;;;13.07;11.07;;;2.80;99.90;;;;;;5029968;28;20210;-82
2022/04/02 11:44:14;;;;;;;13.93;9.43;;;1.20;99.90;;;;;;5040551;28;20238;-81
2022/04/02 11:46:55;;;;;;;14.87;10.00;;;1.10;99.90;;;;;;5027429;28;20187;-80
2022/04/02 11:49:29;;;;;;;10.70;8.30;;;1.30;99.90;;;;;;5043113;28;20187;-81
2022/04/02 11:52:06;;;;;;;12.70;10.17;;;2.50;99.90;;;;;;5019505;28;20185;-81
2022/04/02 11:54:57;;;;;;;11.37;9.87;;;1.40;99.90;;;;;;5027217;28;20187;-82
2022/04/02 11:57:22;;;;;;;14.73;10.50;;;1.70;99.90;;;;;;5026329;28;20284;-82
2022/04/02 11:59:50;;;;;;;10.17;8.10;;;1.30;99.90;;;;;;5008558;28;20287;-81
2022/04/02 12:02:36;;;;;;;11.33;9.40;;;1.10;99.90;;;;;;5018281;28;20186;-80
2022/04/02 12:05:06;;;;;;;14.27;9.70;;;2.80;99.90;;;;;;5034734;28;20176;-83
2022/04/02 12:07:44;;;;;;;11.50;9.57;;;1.30;99.90;;;;;;5033866;28;20657;-81
2022/04/02 12:10:27;;;;;;;10.53;9.43;;;1.40;99.90;;;;;;5048469;28;20258;-84
2022/04/02 12:12:56;;;;;;;11.93;9.63;;;1.20;99.90;;;;;;5069574;28;20187;-85
2022/04/02 12:15:22;;;;;;;11.10;9.67;;;1.20;99.90;;;;;;5073116;28;20184;-88
2022/04/02 12:17:51;;;;;;;12.10;9.60;;;1.30;99.90;;;;;;5068250;28;20178;-86
2022/04/02 12:20:27;;;;;;;10.33;8.10;;;1.30;99.90;;;;;;5069058;28;20293;-82
2022/04/02 12:23:13;;;;;;;17.17;12.77;;;1.90;99.90;;;;;;5041894;28;20271;-83
2022/04/02 12:25:44;;;;;;;12.27;9.50;;;1.20;99.90;;;;;;5043937;28;20192;-84
2022/04/02 12:28:17;;;;;;;14.37;10.50;;;1.20;99.90;;;;;;5044803;28;20210;-87
2022/04/02 12:30:53;;;;;;;15.27;10.13;;;1.30;99.90;;;;;;5065529;28;20198;-88
2022/04/02 12:33:25;;;;;;;18.83;12.10;;;2.30;99.90;;;;;;5059451;28;20182;-85
2022/04/02 12:36:07;;;;;;;18.27;11.23;;;1.20;99.90;;;;;;5027334;28;20188;-81
2022/04/02 12:38:35;;;;;;;17.17;10.63;;;1.40;99.90;;;;;;5015072;28;20204;-82
2022/04/02 12:41:04;;;;;;;19.03;10.53;;;1.20;99.90;;;;;;5030040;28;20200;-83
2022/04/02 12:43:40;;;;;;;19.67;13.27;;;1.20;99.90;;;;;;5041530;28;20193;-81
2022/04/02 12:46:20;;;;;;;17.30;11.00;;;1.30;99.90;;;;;;5030582;28;20184;-81
2022/04/02 12:48:46;;;;;;;10.60;9.50;;;1.40;99.90;;;;;;5044963;28;20196;-82
2022/04/02 12:51:14;;;;;;;14.77;10.47;;;0.90;99.90;;;;;;5018503;28;20276;-82
2022/04/02 12:53:43;;;;;;;13.43;9.27;;;1.20;99.90;;;;;;5026638;28;20172;-83
2022/04/02 12:56:20;;;;;;;12.40;9.60;;;2.30;99.90;;;;;;5046375;28;20195;-82
2022/04/02 12:58:48;;;;;;;16.40;10.90;;;1.30;99.90;;;;;;5060424;28;20236;-82
2022/04/02 13:01:19;;;;;;;14.03;10.83;;;1.20;99.90;;;;;;5035982;28;20294;-81
2022/04/02 13:03:50;;;;;;;14.07;10.70;;;1.20;99.90;;;;;;5051867;28;20187;-79